sensor_id;sensor_type;location;lat;lon;timestamp;temperature;humidity
43607;DHT22;29197;44.788;10.366;2023-04-12T00:02:40;16.60;99.90
43607;DHT22;29197;44.788;10.366;2023-04-12T00:05:31;16.60;99.90
43607;DHT22;29197;44.788;10.366;2023-04-12T00:08:21;16.50;99.90
43607;DHT22;29197;44.788;10.366;2023-04-12T00:11:12;16.50;99.90
43607;DHT22;29197;44.788;10.366;2023-04-12T00:14:00;16.50;99.90
43607;DHT22;29197;44.788;10.366;2023-04-12T00:16:51;16.50;99.90
43607;DHT22;29197;44.788;10.366;2023-04-12T00:19:39;16.50;99.90
43607;DHT22;29197;44.788;10.366;2023-04-12T00:22:29;16.50;99.90
43607;DHT22;29197;44.788;10.366;2023-04-12T00:25:17;16.40;99.90
43607;DHT22;29197;44.788;10.366;2023-04-12T00:28:06;16.40;99.90
43607;DHT22;29197;44.788;10.366;2023-04-12T00:30:54;16.40;99.90
43607;DHT22;29197;44.788;10.366;2023-04-12T00:33:44;16.30;99.90
43607;DHT22;29197;44.788;10.366;2023-04-12T00:36:33;16.20;99.90
43607;DHT22;29197;44.788;10.366;2023-04-12T00:39:21;16.00;99.90
43607;DHT22;29197;44.788;10.366;2023-04-12T00:42:10;15.90;99.90
43607;DHT22;29197;44.788;10.366;2023-04-12T00:44:59;15.90;99.90
43607;DHT22;29197;44.788;10.366;2023-04-12T00:47:47;15.90;99.90
43607;DHT22;29197;44.788;10.366;2023-04-12T00:50:38;15.90;99.90
43607;DHT22;29197;44.788;10.366;2023-04-12T00:53:30;15.80;99.90
43607;DHT22;29197;44.788;10.366;2023-04-12T00:56:20;15.80;99.90
43607;DHT22;29197;44.788;10.366;2023-04-12T00:59:09;15.80;99.90
43607;DHT22;29197;44.788;10.366;2023-04-12T01:01:58;15.70;99.90
43607;DHT22;29197;44.788;10.366;2023-04-12T01:04:48;15.50;99.90
43607;DHT22;29197;44.788;10.366;2023-04-12T01:07:44;15.60;99.90
43607;DHT22;29197;44.788;10.366;2023-04-12T01:10:43;15.50;99.90
43607;DHT22;29197;44.788;10.366;2023-04-12T01:13:38;15.30;99.90
43607;DHT22;29197;44.788;10.366;2023-04-12T01:16:33;15.10;99.90
43607;DHT22;29197;44.788;10.366;2023-04-12T01:19:39;15.20;99.90
43607;DHT22;29197;44.788;10.366;2023-04-12T01:22:52;15.30;99.90
43607;DHT22;29197;44.788;10.366;2023-04-12T01:25:58;15.40;99.90
43607;DHT22;29197;44.788;10.366;2023-04-12T01:28:56;15.50;99.90
43607;DHT22;29197;44.788;10.366;2023-04-12T01:31:50;15.60;99.90
43607;DHT22;29197;44.788;10.366;2023-04-12T01:34:40;15.60;99.90
43607;DHT22;29197;44.788;10.366;2023-04-12T01:37:30;15.70;99.90
43607;DHT22;29197;44.788;10.366;2023-04-12T01:40:19;15.70;99.90
43607;DHT22;29197;44.788;10.366;2023-04-12T01:43:09;15.70;99.90
43607;DHT22;29197;44.788;10.366;2023-04-12T01:46:00;15.70;99.90
43607;DHT22;29197;44.788;10.366;2023-04-12T01:48:49;15.70;99.90
43607;DHT22;29197;44.788;10.366;2023-04-12T01:51:47;15.70;99.90
43607;DHT22;29197;44.788;10.366;2023-04-12T01:54:38;15.70;99.90
43607;DHT22;29197;44.788;10.366;2023-04-12T01:57:29;15.70;99.90
43607;DHT22;29197;44.788;10.366;2023-04-12T02:00:18;15.70;99.90
43607;DHT22;29197;44.788;10.366;2023-04-12T02:03:09;15.70;99.90
43607;DHT22;29197;44.788;10.366;2023-04-12T02:06:01;15.60;99.90
43607;DHT22;29197;44.788;10.366;2023-04-12T02:08:56;15.10;99.90
43607;DHT22;29197;44.788;10.366;2023-04-12T02:11:45;15.60;99.90
43607;DHT22;29197;44.788;10.366;2023-04-12T02:14:35;15.60;99.90
43607;DHT22;29197;44.788;10.366;2023-04-12T02:17:23;15.50;99.90
43607;DHT22;29197;44.788;10.366;2023-04-12T02:20:13;15.50;99.90
43607;DHT22;29197;44.788;10.366;2023-04-12T02:23:04;15.50;99.90
43607;DHT22;29197;44.788;10.366;2023-04-12T02:25:52;15.50;99.90
43607;DHT22;29197;44.788;10.366;2023-04-12T02:28:43;15.50;99.90
43607;DHT22;29197;44.788;10.366;2023-04-12T02:31:32;15.50;99.90
43607;DHT22;29197;44.788;10.366;2023-04-12T02:34:20;15.40;99.90
43607;DHT22;29197;44.788;10.366;2023-04-12T02:37:11;15.40;99.90
43607;DHT22;29197;44.788;10.366;2023-04-12T02:40:04;15.40;99.90
43607;DHT22;29197;44.788;10.366;2023-04-12T02:42:56;15.40;99.90
43607;DHT22;29197;44.788;10.366;2023-04-12T02:45:46;15.50;99.90
43607;DHT22;29197;44.788;10.366;2023-04-12T02:48:34;15.50;99.90
43607;DHT22;29197;44.788;10.366;2023-04-12T02:51:23;15.40;99.90
43607;DHT22;29197;44.788;10.366;2023-04-12T02:54:13;15.20;99.90
43607;DHT22;29197;44.788;10.366;2023-04-12T02:57:03;15.30;99.90
43607;DHT22;29197;44.788;10.366;2023-04-12T02:59:53;15.10;99.90
43607;DHT22;29197;44.788;10.366;2023-04-12T03:02:41;15.00;99.90
43607;DHT22;29197;44.788;10.366;2023-04-12T03:05:30;14.90;99.90
43607;DHT22;29197;44.788;10.366;2023-04-12T03:08:19;14.90;99.90
43607;DHT22;29197;44.788;10.366;2023-04-12T03:11:09;15.00;99.90
43607;DHT22;29197;44.788;10.366;2023-04-12T03:13:57;15.00;99.90
43607;DHT22;29197;44.788;10.366;2023-04-12T03:16:46;15.00;99.90
43607;DHT22;29197;44.788;10.366;2023-04-12T03:19:35;15.00;99.90
43607;DHT22;29197;44.788;10.366;2023-04-12T03:22:24;14.90;99.90
43607;DHT22;29197;44.788;10.366;2023-04-12T03:25:12;14.70;99.90
43607;DHT22;29197;44.788;10.366;2023-04-12T03:28:03;14.60;99.90
43607;DHT22;29197;44.788;10.366;2023-04-12T03:30:51;14.70;99.90
43607;DHT22;29197;44.788;10.366;2023-04-12T03:33:40;14.70;99.90
43607;DHT22;29197;44.788;10.366;2023-04-12T03:36:29;15.50;99.90
43607;DHT22;29197;44.788;10.366;2023-04-12T03:39:18;14.60;99.90
43607;DHT22;29197;44.788;10.366;2023-04-12T03:42:06;14.60;99.90
43607;DHT22;29197;44.788;10.366;2023-04-12T03:45:09;14.60;99.90
43607;DHT22;29197;44.788;10.366;2023-04-12T03:47:58;14.40;99.90
43607;DHT22;29197;44.788;10.366;2023-04-12T03:50:47;14.40;99.90
43607;DHT22;29197;44.788;10.366;2023-04-12T03:53:40;14.30;99.90
43607;DHT22;29197;44.788;10.366;2023-04-12T03:56:29;14.20;99.90
43607;DHT22;29197;44.788;10.366;2023-04-12T06:56:44;14.60;99.90
43607;DHT22;29197;44.788;10.366;2023-04-12T06:59:33;14.40;99.90
43607;DHT22;29197;44.788;10.366;2023-04-12T07:02:21;14.30;99.90
43607;DHT22;29197;44.788;10.366;2023-04-12T07:05:10;14.30;99.90
43607;DHT22;29197;44.788;10.366;2023-04-12T07:08:00;14.30;99.90
43607;DHT22;29197;44.788;10.366;2023-04-12T07:10:52;14.30;99.90
43607;DHT22;29197;44.788;10.366;2023-04-12T07:13:41;14.40;99.90
43607;DHT22;29197;44.788;10.366;2023-04-12T07:16:29;14.40;99.90
43607;DHT22;29197;44.788;10.366;2023-04-12T07:19:18;14.60;99.90
43607;DHT22;29197;44.788;10.366;2023-04-12T07:22:07;14.50;99.90
43607;DHT22;29197;44.788;10.366;2023-04-12T07:24:59;14.40;99.90
43607;DHT22;29197;44.788;10.366;2023-04-12T07:27:48;14.40;99.90
43607;DHT22;29197;44.788;10.366;2023-04-12T07:30:38;14.40;99.90
43607;DHT22;29197;44.788;10.366;2023-04-12T07:33:27;14.30;99.90
43607;DHT22;29197;44.788;10.366;2023-04-12T07:36:16;14.30;99.90
43607;DHT22;29197;44.788;10.366;2023-04-12T07:39:07;14.30;99.90
43607;DHT22;29197;44.788;10.366;2023-04-12T07:41:59;14.30;99.90
43607;DHT22;29197;44.788;10.366;2023-04-12T07:44:48;14.40;99.90
43607;DHT22;29197;44.788;10.366;2023-04-12T07:47:37;14.40;99.90
43607;DHT22;29197;44.788;10.366;2023-04-12T07:50:25;14.30;99.90
43607;DHT22;29197;44.788;10.366;2023-04-12T07:53:18;14.40;99.90
43607;DHT22;29197;44.788;10.366;2023-04-12T07:56:07;14.30;99.90
43607;DHT22;29197;44.788;10.366;2023-04-12T07:58:57;14.30;99.90
43607;DHT22;29197;44.788;10.366;2023-04-12T08:01:47;14.40;99.90
43607;DHT22;29197;44.788;10.366;2023-04-12T08:04:35;14.50;99.90
43607;DHT22;29197;44.788;10.366;2023-04-12T08:07:24;14.50;99.90
43607;DHT22;29197;44.788;10.366;2023-04-12T08:10:13;14.60;99.90
43607;DHT22;29197;44.788;10.366;2023-04-12T08:13:02;14.70;99.90
43607;DHT22;29197;44.788;10.366;2023-04-12T08:15:52;14.70;99.90
43607;DHT22;29197;44.788;10.366;2023-04-12T08:18:41;14.50;99.90
43607;DHT22;29197;44.788;10.366;2023-04-12T08:21:29;14.60;99.90
43607;DHT22;29197;44.788;10.366;2023-04-12T08:24:18;14.50;99.90
43607;DHT22;29197;44.788;10.366;2023-04-12T08:27:07;14.60;99.90
43607;DHT22;29197;44.788;10.366;2023-04-12T08:29:56;14.50;99.90
43607;DHT22;29197;44.788;10.366;2023-04-12T08:32:46;14.60;99.90
43607;DHT22;29197;44.788;10.366;2023-04-12T08:35:34;14.60;99.90
43607;DHT22;29197;44.788;10.366;2023-04-12T08:38:23;14.60;99.90
43607;DHT22;29197;44.788;10.366;2023-04-12T08:41:32;14.70;99.90
43607;DHT22;29197;44.788;10.366;2023-04-12T08:44:34;14.80;99.90
43607;DHT22;29197;44.788;10.366;2023-04-12T08:47:24;14.80;99.90
43607;DHT22;29197;44.788;10.366;2023-04-12T08:50:14;14.80;99.90
43607;DHT22;29197;44.788;10.366;2023-04-12T08:53:03;14.90;99.90
43607;DHT22;29197;44.788;10.366;2023-04-12T08:55:52;14.90;99.90
43607;DHT22;29197;44.788;10.366;2023-04-12T08:58:44;14.90;99.90
43607;DHT22;29197;44.788;10.366;2023-04-12T09:01:35;15.00;99.90
43607;DHT22;29197;44.788;10.366;2023-04-12T09:04:24;15.00;99.90
43607;DHT22;29197;44.788;10.366;2023-04-12T09:07:15;15.10;99.90
43607;DHT22;29197;44.788;10.366;2023-04-12T09:10:04;15.20;99.90
43607;DHT22;29197;44.788;10.366;2023-04-12T09:12:53;15.30;99.90
43607;DHT22;29197;44.788;10.366;2023-04-12T09:15:47;15.20;99.90
43607;DHT22;29197;44.788;10.366;2023-04-12T09:18:47;15.30;99.90
43607;DHT22;29197;44.788;10.366;2023-04-12T09:24:26;15.60;99.90
43607;DHT22;29197;44.788;10.366;2023-04-12T09:27:15;15.70;99.90
43607;DHT22;29197;44.788;10.366;2023-04-12T09:33:10;16.00;99.90
43607;DHT22;29197;44.788;10.366;2023-04-12T09:36:00;16.00;99.90
43607;DHT22;29197;44.788;10.366;2023-04-12T09:39:06;16.10;99.90
43607;DHT22;29197;44.788;10.366;2023-04-12T09:42:04;16.20;99.90
43607;DHT22;29197;44.788;10.366;2023-04-12T09:45:19;16.10;99.90
43607;DHT22;29197;44.788;10.366;2023-04-12T09:48:17;16.20;99.90
43607;DHT22;29197;44.788;10.366;2023-04-12T09:51:07;16.20;99.90
43607;DHT22;29197;44.788;10.366;2023-04-12T09:53:58;16.40;99.90
43607;DHT22;29197;44.788;10.366;2023-04-12T09:56:47;16.20;99.90
43607;DHT22;29197;44.788;10.366;2023-04-12T09:59:39;16.20;99.90
43607;DHT22;29197;44.788;10.366;2023-04-12T10:02:29;16.10;99.90
43607;DHT22;29197;44.788;10.366;2023-04-12T10:05:19;16.10;99.90
43607;DHT22;29197;44.788;10.366;2023-04-12T10:08:10;16.20;99.90
43607;DHT22;29197;44.788;10.366;2023-04-12T10:10:59;16.30;99.90
43607;DHT22;29197;44.788;10.366;2023-04-12T10:13:49;16.20;99.90
43607;DHT22;29197;44.788;10.366;2023-04-12T10:16:40;16.30;99.90
43607;DHT22;29197;44.788;10.366;2023-04-12T10:19:31;16.50;99.90
43607;DHT22;29197;44.788;10.366;2023-04-12T10:22:21;16.70;99.90
43607;DHT22;29197;44.788;10.366;2023-04-12T10:25:10;16.90;99.90
43607;DHT22;29197;44.788;10.366;2023-04-12T10:31:26;17.10;99.90
43607;DHT22;29197;44.788;10.366;2023-04-12T10:37:07;17.00;99.90
43607;DHT22;29197;44.788;10.366;2023-04-12T10:39:55;17.10;99.90
43607;DHT22;29197;44.788;10.366;2023-04-12T10:42:44;17.20;99.90
43607;DHT22;29197;44.788;10.366;2023-04-12T10:45:37;17.50;99.90
43607;DHT22;29197;44.788;10.366;2023-04-12T10:48:30;17.60;99.90
43607;DHT22;29197;44.788;10.366;2023-04-12T10:51:21;17.50;99.90
43607;DHT22;29197;44.788;10.366;2023-04-12T10:54:29;17.30;99.90
43607;DHT22;29197;44.788;10.366;2023-04-12T10:57:42;17.30;99.90
43607;DHT22;29197;44.788;10.366;2023-04-12T11:04:13;17.60;99.90
43607;DHT22;29197;44.788;10.366;2023-04-12T11:09:56;17.80;99.90
43607;DHT22;29197;44.788;10.366;2023-04-12T11:12:47;17.90;99.90
43607;DHT22;29197;44.788;10.366;2023-04-12T11:15:38;18.10;99.90
43607;DHT22;29197;44.788;10.366;2023-04-12T11:18:27;18.10;99.90
43607;DHT22;29197;44.788;10.366;2023-04-12T11:21:16;18.00;99.90
43607;DHT22;29197;44.788;10.366;2023-04-12T11:24:07;17.90;99.90
43607;DHT22;29197;44.788;10.366;2023-04-12T11:26:56;17.90;99.90
43607;DHT22;29197;44.788;10.366;2023-04-12T11:29:47;17.80;99.90
43607;DHT22;29197;44.788;10.366;2023-04-12T11:32:36;17.90;99.90
43607;DHT22;29197;44.788;10.366;2023-04-12T11:35:27;17.80;99.90
43607;DHT22;29197;44.788;10.366;2023-04-12T11:38:17;17.70;99.90
43607;DHT22;29197;44.788;10.366;2023-04-12T11:41:08;20.70;99.90
43607;DHT22;29197;44.788;10.366;2023-04-12T11:43:57;17.80;99.90
43607;DHT22;29197;44.788;10.366;2023-04-12T11:46:46;18.00;99.90
43607;DHT22;29197;44.788;10.366;2023-04-12T11:49:35;18.10;99.90
43607;DHT22;29197;44.788;10.366;2023-04-12T11:52:28;18.20;99.90
43607;DHT22;29197;44.788;10.366;2023-04-12T11:55:16;18.30;99.90
43607;DHT22;29197;44.788;10.366;2023-04-12T11:58:06;18.30;99.90
43607;DHT22;29197;44.788;10.366;2023-04-12T12:00:55;18.30;99.90
43607;DHT22;29197;44.788;10.366;2023-04-12T12:03:45;18.30;99.90
43607;DHT22;29197;44.788;10.366;2023-04-12T12:06:34;18.30;99.90
43607;DHT22;29197;44.788;10.366;2023-04-12T12:09:24;18.40;99.90
43607;DHT22;29197;44.788;10.366;2023-04-12T12:12:13;18.60;99.90
43607;DHT22;29197;44.788;10.366;2023-04-12T12:15:04;18.70;99.90
43607;DHT22;29197;44.788;10.366;2023-04-12T12:17:54;18.60;99.90
43607;DHT22;29197;44.788;10.366;2023-04-12T12:20:48;18.80;99.90
43607;DHT22;29197;44.788;10.366;2023-04-12T12:23:36;18.80;99.90
43607;DHT22;29197;44.788;10.366;2023-04-12T12:26:26;18.80;99.90
43607;DHT22;29197;44.788;10.366;2023-04-12T12:29:18;18.80;99.90
43607;DHT22;29197;44.788;10.366;2023-04-12T12:32:12;18.70;99.90
43607;DHT22;29197;44.788;10.366;2023-04-12T12:35:01;18.70;99.90
43607;DHT22;29197;44.788;10.366;2023-04-12T12:37:50;18.70;99.90
43607;DHT22;29197;44.788;10.366;2023-04-12T12:40:39;18.60;99.90
43607;DHT22;29197;44.788;10.366;2023-04-12T12:43:27;18.60;99.90
43607;DHT22;29197;44.788;10.366;2023-04-12T12:46:17;18.60;99.90
43607;DHT22;29197;44.788;10.366;2023-04-12T12:49:07;18.60;99.90
43607;DHT22;29197;44.788;10.366;2023-04-12T12:51:56;18.60;99.90
43607;DHT22;29197;44.788;10.366;2023-04-12T12:54:45;18.60;99.90
43607;DHT22;29197;44.788;10.366;2023-04-12T12:57:33;18.50;99.90
43607;DHT22;29197;44.788;10.366;2023-04-12T13:00:24;18.50;99.90
43607;DHT22;29197;44.788;10.366;2023-04-12T13:03:13;18.40;99.90
43607;DHT22;29197;44.788;10.366;2023-04-12T13:06:04;18.40;99.90
43607;DHT22;29197;44.788;10.366;2023-04-12T13:08:53;18.40;99.90
43607;DHT22;29197;44.788;10.366;2023-04-12T13:11:42;18.30;99.90
43607;DHT22;29197;44.788;10.366;2023-04-12T13:14:31;18.20;99.90
43607;DHT22;29197;44.788;10.366;2023-04-12T13:17:20;18.20;99.90
43607;DHT22;29197;44.788;10.366;2023-04-12T13:20:09;18.20;99.90
43607;DHT22;29197;44.788;10.366;2023-04-12T13:22:59;18.10;99.90
43607;DHT22;29197;44.788;10.366;2023-04-12T13:25:47;18.10;99.90
43607;DHT22;29197;44.788;10.366;2023-04-12T13:28:36;18.10;99.90
43607;DHT22;29197;44.788;10.366;2023-04-12T13:31:24;18.10;99.90
43607;DHT22;29197;44.788;10.366;2023-04-12T13:34:13;18.10;99.90
43607;DHT22;29197;44.788;10.366;2023-04-12T13:37:02;18.10;99.90
43607;DHT22;29197;44.788;10.366;2023-04-12T13:39:52;18.20;99.90
43607;DHT22;29197;44.788;10.366;2023-04-12T13:42:40;18.10;99.90
43607;DHT22;29197;44.788;10.366;2023-04-12T13:45:29;18.10;99.90
43607;DHT22;29197;44.788;10.366;2023-04-12T13:48:20;18.10;99.90
43607;DHT22;29197;44.788;10.366;2023-04-12T13:51:09;18.00;99.90
43607;DHT22;29197;44.788;10.366;2023-04-12T13:53:58;17.90;99.90
43607;DHT22;29197;44.788;10.366;2023-04-12T13:56:48;17.90;99.90
43607;DHT22;29197;44.788;10.366;2023-04-12T13:59:36;18.00;99.90
43607;DHT22;29197;44.788;10.366;2023-04-12T14:02:25;18.00;99.90
43607;DHT22;29197;44.788;10.366;2023-04-12T14:05:17;18.00;99.90
43607;DHT22;29197;44.788;10.366;2023-04-12T14:08:05;18.00;99.90
43607;DHT22;29197;44.788;10.366;2023-04-12T14:10:54;17.90;99.90
43607;DHT22;29197;44.788;10.366;2023-04-12T14:25:00;18.10;99.90
43607;DHT22;29197;44.788;10.366;2023-04-12T14:27:48;18.10;99.90
43607;DHT22;29197;44.788;10.366;2023-04-12T14:30:39;18.20;99.90
43607;DHT22;29197;44.788;10.366;2023-04-12T14:33:28;18.40;99.90
43607;DHT22;29197;44.788;10.366;2023-04-12T14:36:16;18.60;99.90
43607;DHT22;29197;44.788;10.366;2023-04-12T14:39:05;18.90;99.90
43607;DHT22;29197;44.788;10.366;2023-04-12T14:41:57;19.10;99.90
43607;DHT22;29197;44.788;10.366;2023-04-12T14:44:45;19.30;99.90
43607;DHT22;29197;44.788;10.366;2023-04-12T14:47:35;19.80;99.90
43607;DHT22;29197;44.788;10.366;2023-04-12T14:50:24;20.30;99.90
43607;DHT22;29197;44.788;10.366;2023-04-12T14:56:02;20.60;99.90
43607;DHT22;29197;44.788;10.366;2023-04-12T14:58:51;20.50;99.90
43607;DHT22;29197;44.788;10.366;2023-04-12T15:01:41;20.50;99.90
43607;DHT22;29197;44.788;10.366;2023-04-12T15:04:31;20.30;99.90
43607;DHT22;29197;44.788;10.366;2023-04-12T15:07:20;20.00;99.90
43607;DHT22;29197;44.788;10.366;2023-04-12T15:10:09;19.70;99.90
43607;DHT22;29197;44.788;10.366;2023-04-12T15:13:00;19.50;99.90
43607;DHT22;29197;44.788;10.366;2023-04-12T15:15:48;19.30;99.90
43607;DHT22;29197;44.788;10.366;2023-04-12T15:18:37;19.10;99.90
43607;DHT22;29197;44.788;10.366;2023-04-12T15:21:29;19.00;99.90
43607;DHT22;29197;44.788;10.366;2023-04-12T15:24:18;18.80;99.90
43607;DHT22;29197;44.788;10.366;2023-04-12T15:27:07;18.80;99.90
43607;DHT22;29197;44.788;10.366;2023-04-12T15:29:56;18.70;99.90
43607;DHT22;29197;44.788;10.366;2023-04-12T15:32:44;18.60;99.90
43607;DHT22;29197;44.788;10.366;2023-04-12T15:35:33;18.60;99.90
43607;DHT22;29197;44.788;10.366;2023-04-12T15:38:23;18.50;99.90
43607;DHT22;29197;44.788;10.366;2023-04-12T15:41:12;18.60;99.90
43607;DHT22;29197;44.788;10.366;2023-04-12T15:44:00;18.60;99.90
43607;DHT22;29197;44.788;10.366;2023-04-12T15:46:49;18.60;99.90
43607;DHT22;29197;44.788;10.366;2023-04-12T15:49:56;18.50;99.90
43607;DHT22;29197;44.788;10.366;2023-04-12T15:52:45;18.50;99.90
43607;DHT22;29197;44.788;10.366;2023-04-12T15:55:35;18.50;99.90
43607;DHT22;29197;44.788;10.366;2023-04-12T15:58:25;18.50;99.90
43607;DHT22;29197;44.788;10.366;2023-04-12T16:01:14;18.50;99.90
43607;DHT22;29197;44.788;10.366;2023-04-12T16:04:02;18.40;99.90
43607;DHT22;29197;44.788;10.366;2023-04-12T16:06:53;18.40;99.90
43607;DHT22;29197;44.788;10.366;2023-04-12T16:09:42;18.40;99.90
43607;DHT22;29197;44.788;10.366;2023-04-12T16:12:32;18.40;99.90
43607;DHT22;29197;44.788;10.366;2023-04-12T16:15:20;18.40;99.90
43607;DHT22;29197;44.788;10.366;2023-04-12T16:18:09;18.30;99.90
43607;DHT22;29197;44.788;10.366;2023-04-12T16:23:47;18.20;99.90
43607;DHT22;29197;44.788;10.366;2023-04-12T16:26:37;18.20;99.90
43607;DHT22;29197;44.788;10.366;2023-04-12T16:29:27;18.20;99.90
43607;DHT22;29197;44.788;10.366;2023-04-12T16:32:17;18.20;99.90
43607;DHT22;29197;44.788;10.366;2023-04-12T16:35:06;18.20;99.90
43607;DHT22;29197;44.788;10.366;2023-04-12T16:37:55;18.20;99.90
43607;DHT22;29197;44.788;10.366;2023-04-12T16:40:44;18.20;99.90
43607;DHT22;29197;44.788;10.366;2023-04-12T16:43:33;18.20;99.90
43607;DHT22;29197;44.788;10.366;2023-04-12T16:46:23;18.20;99.90
43607;DHT22;29197;44.788;10.366;2023-04-12T16:49:12;18.20;99.90
43607;DHT22;29197;44.788;10.366;2023-04-12T16:52:05;18.20;99.90
43607;DHT22;29197;44.788;10.366;2023-04-12T16:54:53;18.20;99.90
43607;DHT22;29197;44.788;10.366;2023-04-12T16:57:42;18.10;99.90
43607;DHT22;29197;44.788;10.366;2023-04-12T17:00:32;18.10;99.90
43607;DHT22;29197;44.788;10.366;2023-04-12T17:03:22;18.10;99.90
43607;DHT22;29197;44.788;10.366;2023-04-12T17:06:11;18.00;99.90
43607;DHT22;29197;44.788;10.366;2023-04-12T17:09:00;17.90;99.90
43607;DHT22;29197;44.788;10.366;2023-04-12T17:11:49;17.90;99.90
43607;DHT22;29197;44.788;10.366;2023-04-12T17:14:37;17.90;99.90
43607;DHT22;29197;44.788;10.366;2023-04-12T17:17:26;17.90;99.90
43607;DHT22;29197;44.788;10.366;2023-04-12T17:20:17;18.00;99.90
43607;DHT22;29197;44.788;10.366;2023-04-12T17:23:05;18.00;99.90
43607;DHT22;29197;44.788;10.366;2023-04-12T17:25:56;18.10;99.90
43607;DHT22;29197;44.788;10.366;2023-04-12T17:28:45;18.20;99.90
43607;DHT22;29197;44.788;10.366;2023-04-12T17:31:34;18.30;99.90
43607;DHT22;29197;44.788;10.366;2023-04-12T17:34:23;18.30;99.90
43607;DHT22;29197;44.788;10.366;2023-04-12T17:37:13;18.30;99.90
43607;DHT22;29197;44.788;10.366;2023-04-12T17:40:02;18.30;99.90
43607;DHT22;29197;44.788;10.366;2023-04-12T17:42:52;18.20;99.90
43607;DHT22;29197;44.788;10.366;2023-04-12T17:45:40;18.20;99.90
43607;DHT22;29197;44.788;10.366;2023-04-12T17:48:29;18.20;99.90
43607;DHT22;29197;44.788;10.366;2023-04-12T17:51:18;18.20;99.90
43607;DHT22;29197;44.788;10.366;2023-04-12T17:54:08;18.20;99.90
43607;DHT22;29197;44.788;10.366;2023-04-12T17:56:56;18.20;99.90
43607;DHT22;29197;44.788;10.366;2023-04-12T17:59:45;18.20;99.90
43607;DHT22;29197;44.788;10.366;2023-04-12T18:02:34;18.20;99.90
43607;DHT22;29197;44.788;10.366;2023-04-12T18:05:23;18.20;99.90
43607;DHT22;29197;44.788;10.366;2023-04-12T18:08:11;18.20;99.90
43607;DHT22;29197;44.788;10.366;2023-04-12T18:11:02;18.20;99.90
43607;DHT22;29197;44.788;10.366;2023-04-12T18:13:52;18.20;99.90
43607;DHT22;29197;44.788;10.366;2023-04-12T18:16:42;18.20;99.90
43607;DHT22;29197;44.788;10.366;2023-04-12T18:19:30;18.30;99.90
43607;DHT22;29197;44.788;10.366;2023-04-12T18:22:19;18.20;99.90
43607;DHT22;29197;44.788;10.366;2023-04-12T18:25:09;18.20;99.90
43607;DHT22;29197;44.788;10.366;2023-04-12T18:27:59;18.20;99.90
43607;DHT22;29197;44.788;10.366;2023-04-12T18:30:48;18.20;99.90
43607;DHT22;29197;44.788;10.366;2023-04-12T18:33:36;18.30;99.90
43607;DHT22;29197;44.788;10.366;2023-04-12T18:36:25;18.20;99.90
43607;DHT22;29197;44.788;10.366;2023-04-12T18:39:14;18.20;99.90
43607;DHT22;29197;44.788;10.366;2023-04-12T18:42:02;18.10;99.90
43607;DHT22;29197;44.788;10.366;2023-04-12T18:44:52;17.90;99.90
43607;DHT22;29197;44.788;10.366;2023-04-12T18:47:42;17.90;99.90
43607;DHT22;29197;44.788;10.366;2023-04-12T18:50:31;17.80;99.90
43607;DHT22;29197;44.788;10.366;2023-04-12T18:53:19;17.80;99.90
43607;DHT22;29197;44.788;10.366;2023-04-12T18:56:08;17.80;99.90
43607;DHT22;29197;44.788;10.366;2023-04-12T18:58:57;17.70;99.90
43607;DHT22;29197;44.788;10.366;2023-04-12T19:01:47;17.60;99.90
43607;DHT22;29197;44.788;10.366;2023-04-12T19:04:35;17.60;99.90
43607;DHT22;29197;44.788;10.366;2023-04-12T19:07:25;17.60;99.90
43607;DHT22;29197;44.788;10.366;2023-04-12T19:10:15;17.50;99.90
43607;DHT22;29197;44.788;10.366;2023-04-12T19:13:05;17.50;99.90
43607;DHT22;29197;44.788;10.366;2023-04-12T19:15:55;17.50;99.90
43607;DHT22;29197;44.788;10.366;2023-04-12T19:18:49;17.50;99.90
43607;DHT22;29197;44.788;10.366;2023-04-12T19:21:39;17.40;99.90
43607;DHT22;29197;44.788;10.366;2023-04-12T19:24:32;17.40;99.90
43607;DHT22;29197;44.788;10.366;2023-04-12T19:27:26;17.40;99.90
43607;DHT22;29197;44.788;10.366;2023-04-12T19:30:19;17.40;99.90
43607;DHT22;29197;44.788;10.366;2023-04-12T19:33:10;17.30;99.90
43607;DHT22;29197;44.788;10.366;2023-04-12T19:36:04;17.30;99.90
43607;DHT22;29197;44.788;10.366;2023-04-12T19:38:55;17.30;99.90
43607;DHT22;29197;44.788;10.366;2023-04-12T19:41:48;17.40;99.90
43607;DHT22;29197;44.788;10.366;2023-04-12T19:44:40;17.30;99.90
43607;DHT22;29197;44.788;10.366;2023-04-12T19:47:32;17.30;99.90
43607;DHT22;29197;44.788;10.366;2023-04-12T19:50:24;17.30;99.90
43607;DHT22;29197;44.788;10.366;2023-04-12T19:53:21;17.20;99.90
43607;DHT22;29197;44.788;10.366;2023-04-12T19:56:12;17.30;99.90
43607;DHT22;29197;44.788;10.366;2023-04-12T19:59:05;17.30;99.90
43607;DHT22;29197;44.788;10.366;2023-04-12T20:02:01;17.20;99.90
43607;DHT22;29197;44.788;10.366;2023-04-12T20:04:54;17.10;99.90
43607;DHT22;29197;44.788;10.366;2023-04-12T20:07:48;17.00;99.90
43607;DHT22;29197;44.788;10.366;2023-04-12T20:10:49;17.00;99.90
43607;DHT22;29197;44.788;10.366;2023-04-12T20:13:40;17.00;99.90
43607;DHT22;29197;44.788;10.366;2023-04-12T20:19:28;17.00;99.90
43607;DHT22;29197;44.788;10.366;2023-04-12T20:22:21;17.00;99.90
43607;DHT22;29197;44.788;10.366;2023-04-12T20:25:14;17.10;99.90
43607;DHT22;29197;44.788;10.366;2023-04-12T20:28:11;17.10;99.90
43607;DHT22;29197;44.788;10.366;2023-04-12T20:31:04;17.10;99.90
43607;DHT22;29197;44.788;10.366;2023-04-12T20:33:57;17.10;99.90
43607;DHT22;29197;44.788;10.366;2023-04-12T20:36:50;17.10;99.90
43607;DHT22;29197;44.788;10.366;2023-04-12T20:39:43;17.10;99.90
43607;DHT22;29197;44.788;10.366;2023-04-12T20:42:35;17.10;99.90
43607;DHT22;29197;44.788;10.366;2023-04-12T20:45:30;17.10;99.90
43607;DHT22;29197;44.788;10.366;2023-04-12T20:48:24;17.20;99.90
43607;DHT22;29197;44.788;10.366;2023-04-12T20:51:17;17.10;99.90
43607;DHT22;29197;44.788;10.366;2023-04-12T20:54:10;17.10;99.90
43607;DHT22;29197;44.788;10.366;2023-04-12T20:57:03;17.00;99.90
43607;DHT22;29197;44.788;10.366;2023-04-12T20:59:56;17.00;99.90
43607;DHT22;29197;44.788;10.366;2023-04-12T21:02:49;17.00;99.90
43607;DHT22;29197;44.788;10.366;2023-04-12T21:05:40;16.90;99.90
43607;DHT22;29197;44.788;10.366;2023-04-12T21:08:33;16.90;99.90
43607;DHT22;29197;44.788;10.366;2023-04-12T21:11:23;16.90;99.90
43607;DHT22;29197;44.788;10.366;2023-04-12T21:14:14;16.80;99.90
43607;DHT22;29197;44.788;10.366;2023-04-12T21:17:04;16.70;99.90